Time;durP1;ratioP1;P1;durP2;ratioP2;P2;SDS_P1;SDS_P2;PMS_P1;PMS_P2;Temp;Humidity;BMP_temperature;BMP_pressure;BME280_temperature;BME280_humidity;BME280_pressure;Samples;Min_cycle;Max_cycle;Signal;HPM_P1;HPM_P2
2023/04/03 00:00:56;;;;;;;4.70;2.50;;;;;;;4.47;56.87;101032.00;10255957;28;20061;-60
2023/04/03 00:05:58;;;;;;;5.53;2.60;;;;;;;4.41;57.30;101026.06;10253332;28;20132;-60
2023/04/03 00:10:59;;;;;;;7.50;2.80;;;;;;;4.41;57.66;101031.25;10253219;28;20077;-61
2023/04/03 00:16:03;;;;;;;6.63;2.70;;;;;;;4.41;57.69;101026.91;10256166;28;20054;-60
2023/04/03 00:21:05;;;;;;;6.93;2.85;;;;;;;4.38;57.38;101021.78;10261118;28;20086;-60
2023/04/03 00:26:07;;;;;;;6.32;2.90;;;;;;;4.32;57.54;101018.44;10261946;28;20039;-60
2023/04/03 00:31:09;;;;;;;6.07;2.38;;;;;;;4.37;57.89;101027.00;10278109;28;20047;-60
2023/04/03 00:36:12;;;;;;;8.20;2.70;;;;;;;4.39;57.92;101023.47;10262404;28;20062;-60
2023/04/03 00:41:14;;;;;;;5.80;2.75;;;;;;;4.40;57.97;101024.34;10266847;28;20313;-60
2023/04/03 00:46:16;;;;;;;7.45;2.47;;;;;;;4.38;57.80;101028.69;10279116;28;20051;-60
2023/04/03 00:51:28;;;;;;;4.55;2.60;;;;;;;4.39;58.58;101018.31;10267825;28;20047;-60
2023/04/03 00:56:31;;;;;;;4.35;2.72;;;;;;;4.42;58.52;101017.41;10256297;28;20077;-60
2023/04/03 01:01:32;;;;;;;5.38;2.60;;;;;;;4.43;58.57;101017.38;10258974;28;20046;-60
2023/04/03 01:06:37;;;;;;;5.25;2.65;;;;;;;4.42;58.71;101015.69;10253994;28;20035;-60
2023/04/03 01:11:41;;;;;;;5.45;2.72;;;;;;;4.43;58.59;101017.38;10296867;28;20074;-60
2023/04/03 01:16:43;;;;;;;5.63;2.70;;;;;;;4.45;58.83;101022.53;10254836;28;20746;-59
2023/04/03 01:21:59;;;;;;;4.78;2.53;;;;;;;4.35;58.73;101023.59;10260337;28;20561;-60
2023/04/03 01:27:04;;;;;;;6.35;2.70;;;;;;;4.37;58.76;101020.06;10254231;28;20377;-60
2023/04/03 01:32:06;;;;;;;5.45;2.33;;;;;;;4.42;58.69;101022.59;10257309;28;20679;-59
2023/04/03 01:37:07;;;;;;;4.47;2.50;;;;;;;4.44;58.65;101016.50;10258310;28;20082;-60
2023/04/03 01:42:11;;;;;;;4.97;2.45;;;;;;;4.46;58.67;101012.16;10260490;28;20046;-60
2023/04/03 01:47:16;;;;;;;8.00;2.45;;;;;;;4.39;58.33;101007.94;10256969;28;20047;-60
2023/04/03 01:52:18;;;;;;;4.78;2.33;;;;;;;4.38;58.62;101014.03;10254143;28;20051;-60
2023/04/03 01:57:20;;;;;;;4.25;2.20;;;;;;;4.35;58.70;101005.47;10258017;28;20648;-60
2023/04/03 02:02:22;;;;;;;6.53;2.50;;;;;;;4.29;58.88;101014.16;10256172;28;20062;-60
2023/04/03 02:07:26;;;;;;;6.50;2.40;;;;;;;4.25;59.02;101015.09;10265133;28;20054;-60
2023/04/03 02:12:28;;;;;;;4.78;2.40;;;;;;;4.27;59.19;101018.50;10266684;28;20046;-60
2023/04/03 02:17:29;;;;;;;6.18;2.50;;;;;;;4.23;59.39;101019.44;10260927;28;20499;-60
2023/04/03 02:22:31;;;;;;;5.57;2.33;;;;;;;4.25;59.48;101020.28;10245461;28;20057;-60
2023/04/03 02:27:33;;;;;;;4.20;2.38;;;;;;;4.28;59.48;101020.25;10262595;28;20045;-60
2023/04/03 02:32:35;;;;;;;5.13;2.50;;;;;;;4.30;59.41;101013.28;10260080;28;20069;-60
2023/04/03 02:37:37;;;;;;;4.38;2.40;;;;;;;4.23;59.67;101006.50;10273388;28;20043;-60
2023/04/03 02:42:40;;;;;;;3.83;2.00;;;;;;;4.18;59.76;101015.22;10282105;28;20349;-60
2023/04/03 02:47:42;;;;;;;4.55;2.50;;;;;;;4.00;60.01;101003.44;10278684;28;20043;-60
2023/04/03 02:52:44;;;;;;;4.25;2.33;;;;;;;3.77;59.99;101015.84;10266840;28;20065;-60
2023/04/03 02:57:45;;;;;;;4.55;2.35;;;;;;;3.59;60.53;101026.47;10281709;28;20046;-60
2023/04/03 03:02:49;;;;;;;5.57;2.40;;;;;;;3.52;60.78;101022.22;10277675;28;20046;-60
2023/04/03 03:07:51;;;;;;;7.03;2.55;;;;;;;3.51;60.85;101023.13;10256344;28;20053;-60
2023/04/03 03:12:53;;;;;;;5.47;2.53;;;;;;;3.55;60.95;101032.56;10253454;28;20403;-60
2023/04/03 03:17:54;;;;;;;6.55;2.45;;;;;;;3.58;60.84;101037.66;10253998;28;20513;-60
2023/04/03 03:22:56;;;;;;;4.88;2.70;;;;;;;3.45;61.21;101043.91;10249660;28;20458;-60
2023/04/03 03:27:59;;;;;;;5.80;2.50;;;;;;;3.33;61.46;101039.75;10239603;28;20647;-60
2023/04/03 03:33:01;;;;;;;6.70;2.35;;;;;;;3.24;61.68;101041.56;10286776;28;20054;-60
2023/04/03 03:38:03;;;;;;;4.55;2.40;;;;;;;3.15;62.01;101047.75;10259245;28;20392;-60
2023/04/03 03:43:06;;;;;;;6.18;2.70;;;;;;;3.13;61.97;101040.88;10254835;28;20403;-60
2023/04/03 03:48:08;;;;;;;7.20;2.90;;;;;;;2.78;62.09;101049.00;10254888;28;20042;-60
2023/04/03 03:53:10;;;;;;;7.57;3.15;;;;;;;2.65;62.05;101048.28;10279587;28;20046;-60
2023/04/03 03:58:12;;;;;;;7.88;2.67;;;;;;;2.62;61.83;101050.03;10264453;28;20054;-60
2023/04/03 04:03:14;;;;;;;6.28;2.70;;;;;;;2.56;61.75;101042.34;10257901;28;20046;-60
2023/04/03 04:08:19;;;;;;;5.45;2.45;;;;;;;2.49;61.68;101053.59;10278422;28;20133;-60
2023/04/03 04:13:21;;;;;;;7.63;2.47;;;;;;;2.33;61.27;101052.00;10260599;28;20042;-60
2023/04/03 04:18:23;;;;;;;7.60;2.47;;;;;;;2.31;61.46;101061.50;10261072;28;20515;-60
2023/04/03 04:23:26;;;;;;;5.57;2.10;;;;;;;2.15;60.59;101064.19;10250843;28;20050;-60
2023/04/03 04:28:27;;;;;;;6.25;2.17;;;;;;;2.13;60.45;101067.66;10280024;28;20050;-60
2023/04/03 04:33:32;;;;;;;5.90;1.90;;;;;;;2.10;60.19;101059.94;10275193;28;20039;-60
2023/04/03 04:38:37;;;;;;;6.65;2.40;;;;;;;1.94;60.60;101071.22;10294021;28;20042;-60
2023/04/03 04:43:39;;;;;;;4.03;1.98;;;;;;;2.00;60.94;101076.34;10291945;28;20043;-60
2023/04/03 04:48:41;;;;;;;6.70;2.40;;;;;;;2.05;60.87;101075.44;10276759;28;20633;-60
2023/04/03 04:53:44;;;;;;;5.57;2.30;;;;;;;1.95;60.75;101081.53;10261077;28;20104;-60
2023/04/03 04:58:49;;;;;;;7.15;2.30;;;;;;;1.79;60.19;101091.94;10276221;28;20055;-60
2023/04/03 05:03:53;;;;;;;5.47;2.10;;;;;;;1.72;60.20;101085.13;10260691;28;20604;-61
2023/04/03 05:08:57;;;;;;;7.20;2.28;;;;;;;1.83;60.58;101093.66;10263175;28;20049;-61
2023/04/03 05:14:00;;;;;;;6.22;2.35;;;;;;;1.80;60.56;101102.28;10278696;28;20051;-60
2023/04/03 05:19:03;;;;;;;7.93;2.30;;;;;;;1.89;60.63;101109.94;10271458;28;21291;-61
2023/04/03 05:24:08;;;;;;;8.38;2.60;;;;;;;1.89;60.45;101114.28;10259165;28;20318;-61
2023/04/03 05:29:13;;;;;;;13.85;6.97;;;;;;;1.93;60.61;101114.22;10256282;28;20152;-61
2023/04/03 05:34:16;;;;;;;8.20;4.00;;;;;;;1.96;60.73;101121.09;10270278;28;20043;-61
2023/04/03 05:39:22;;;;;;;9.45;3.33;;;;;;;2.03;60.89;101122.78;10259686;28;20042;-60
2023/04/03 05:44:24;;;;;;;8.00;2.50;;;;;;;2.08;61.08;101137.38;10273976;28;20047;-60
2023/04/03 05:49:27;;;;;;;6.85;2.60;;;;;;;2.20;60.69;101139.00;10269290;28;20038;-61
2023/04/03 05:54:30;;;;;;;12.73;4.07;;;;;;;2.28;60.08;101144.97;10259619;28;20042;-60
2023/04/03 05:59:52;;;;;;;7.90;2.60;;;;;;;2.29;59.72;101141.53;10261107;28;20070;-61
2023/04/03 06:04:55;;;;;;;8.23;2.60;;;;;;;2.42;59.62;101152.63;10259333;28;20542;-61
2023/04/03 06:09:57;;;;;;;8.48;2.22;;;;;;;2.53;58.99;101149.09;10258097;28;20050;-60
2023/04/03 06:14:59;;;;;;;7.57;2.33;;;;;;;2.55;58.54;101160.25;10255053;28;20043;-61
2023/04/03 06:20:01;;;;;;;9.40;2.78;;;;;;;2.56;58.45;101169.72;10258774;28;20916;-61
2023/04/03 06:25:03;;;;;;;7.28;2.50;;;;;;;2.73;57.84;101178.19;10260066;28;20051;-61
2023/04/03 06:30:06;;;;;;;8.88;2.45;;;;;;;2.66;57.51;101181.69;10259230;28;20055;-61
2023/04/03 06:35:08;;;;;;;8.32;2.40;;;;;;;2.56;56.42;101190.38;10258029;28;20049;-61
2023/04/03 06:40:21;;;;;;;6.15;2.15;;;;;;;2.45;55.49;101181.84;10259860;28;20189;-61
2023/04/03 06:45:25;;;;;;;5.88;2.10;;;;;;;2.54;56.11;101189.53;10261618;28;20051;-61
2023/04/03 06:50:27;;;;;;;7.15;2.05;;;;;;;2.56;55.49;101190.38;10253716;28;20458;-61
2023/04/03 06:55:28;;;;;;;7.07;1.90;;;;;;;2.58;55.12;101193.78;10252446;28;20427;-61
2023/04/03 07:00:31;;;;;;;6.18;2.03;;;;;;;2.77;54.95;101202.28;10257856;28;20059;-61
2023/04/03 07:05:32;;;;;;;8.52;2.33;;;;;;;2.81;54.70;101194.50;10260050;28;20046;-61
2023/04/03 07:10:34;;;;;;;7.72;2.30;;;;;;;2.97;54.71;101210.72;10259597;28;20236;-61
2023/04/03 07:15:36;;;;;;;8.55;2.13;;;;;;;3.01;54.88;101205.50;10258314;28;20042;-61
2023/04/03 07:20:39;;;;;;;5.97;2.20;;;;;;;3.27;54.84;101213.03;10257026;28;20050;-61
2023/04/03 07:25:47;;;;;;;7.28;2.30;;;;;;;3.37;52.96;101211.22;10256034;28;20054;-61
2023/04/03 07:30:58;;;;;;;8.02;2.28;;;;;;;3.41;53.57;101220.66;10250852;28;20189;-61
2023/04/03 07:36:01;;;;;;;6.90;2.08;;;;;;;3.78;53.66;101219.38;10261540;28;20368;-61
2023/04/03 07:41:03;;;;;;;6.72;2.40;;;;;;;3.80;53.09;101225.41;10259296;28;20649;-61
2023/04/03 07:46:05;;;;;;;8.55;2.50;;;;;;;3.84;52.57;101224.53;10259803;28;20125;-61
2023/04/03 07:51:07;;;;;;;7.43;2.22;;;;;;;4.01;51.55;101219.97;10253394;28;20500;-61
2023/04/03 07:56:09;;;;;;;9.15;2.42;;;;;;;3.81;51.73;101232.28;10259256;28;20345;-61
2023/04/03 08:01:11;;;;;;;7.60;2.45;;;;;;;3.89;51.83;101225.31;10288883;28;20043;-61
2023/04/03 08:06:14;;;;;;;7.95;2.40;;;;;;;5.01;50.66;101228.88;10255246;28;20042;-61
2023/04/03 08:11:20;;;;;;;7.78;2.65;;;;;;;6.48;48.86;101225.13;10254173;28;20047;-61
2023/04/03 08:16:25;;;;;;;9.00;2.20;;;;;;;6.87;47.18;101225.97;10259298;28;20053;-62
2023/04/03 08:21:27;;;;;;;7.45;2.53;;;;;;;6.59;46.10;101220.56;10252710;28;20066;-62
2023/04/03 08:26:28;;;;;;;7.20;2.33;;;;;;;6.03;45.83;101218.31;10252358;28;20050;-61
2023/04/03 08:31:31;;;;;;;8.82;2.67;;;;;;;6.23;46.64;101222.19;10250012;28;20537;-62
2023/04/03 08:36:32;;;;;;;11.05;3.22;;;;;;;6.87;46.58;101219.03;10253804;28;20051;-62
2023/04/03 08:41:38;;;;;;;5.47;2.42;;;;;;;7.46;46.38;101209.69;10279340;28;20050;-62
2023/04/03 08:46:55;;;;;;;6.43;2.40;;;;;;;6.68;45.95;101211.69;10262290;28;20466;-61
2023/04/03 08:52:04;;;;;;;8.98;2.30;;;;;;;5.30;46.07;101231.84;10266914;28;20054;-62
2023/04/03 08:57:06;;;;;;;6.00;2.30;;;;;;;5.58;47.74;101235.63;10260876;28;20735;-62
2023/04/03 09:02:34;;;;;;;7.00;2.55;;;;;;;6.34;45.87;101220.25;10260113;28;20047;-62
2023/04/03 09:07:43;;;;;;;7.90;2.50;;;;;;;7.48;45.08;101210.50;10265035;28;20049;-62
2023/04/03 09:13:01;;;;;;;5.75;2.08;;;;;;;7.44;43.63;101214.09;10258828;28;20083;-61
2023/04/03 09:18:15;;;;;;;6.13;2.40;;;;;;;7.60;44.71;101215.38;10276591;28;20047;-62
2023/04/03 09:23:36;;;;;;;7.07;2.50;;;;;;;6.99;40.83;101220.47;10263192;28;20193;-61
2023/04/03 09:28:41;;;;;;;5.97;2.10;;;;;;;7.08;44.23;101215.03;10258886;28;20049;-62
2023/04/03 09:33:56;;;;;;;5.60;2.22;;;;;;;6.71;43.38;101215.09;10263428;28;20892;-61
2023/04/03 09:39:09;;;;;;;5.05;2.10;;;;;;;7.36;43.24;101209.97;10259023;28;20058;-61
2023/04/03 09:44:31;;;;;;;7.70;2.58;;;;;;;7.66;41.89;101203.94;10265467;28;20410;-61
2023/04/03 09:49:33;;;;;;;6.88;2.22;;;;;;;7.83;41.66;101212.97;10252759;28;20073;-62
2023/04/03 09:54:40;;;;;;;6.53;2.20;;;;;;;6.79;42.19;101215.75;10257989;28;20047;-61
2023/04/03 10:00:01;;;;;;;5.20;1.88;;;;;;;7.21;40.27;101206.00;10250457;28;20491;-61
2023/04/03 10:05:25;;;;;;;7.13;2.50;;;;;;;7.94;39.86;101207.47;10257355;28;20051;-62
2023/04/03 10:10:26;;;;;;;7.00;2.17;;;;;;;7.48;40.41;101209.66;10254589;28;20043;-62
2023/04/03 10:15:36;;;;;;;10.05;2.35;;;;;;;7.81;40.62;101203.53;10251069;28;20043;-62
2023/04/03 10:20:44;;;;;;;5.63;2.08;;;;;;;8.49;40.20;101194.53;10251713;28;20400;-62
2023/04/03 10:26:17;;;;;;;6.93;2.00;;;;;;;8.16;38.94;101197.31;10253853;28;20841;-62
2023/04/03 10:32:01;;;;;;;5.28;2.00;;;;;;;8.07;38.90;101187.13;10254989;28;20407;-61
2023/04/03 10:37:23;;;;;;;6.13;2.05;;;;;;;8.18;40.14;101191.13;10258181;28;20062;-62
2023/04/03 10:42:47;;;;;;;5.43;2.05;;;;;;;8.38;39.13;101174.91;10247243;28;20045;-62
2023/04/03 10:48:11;;;;;;;7.82;2.28;;;;;;;8.40;37.17;101191.38;10248188;28;20070;-61
2023/04/03 10:53:46;;;;;;;4.90;1.85;;;;;;;7.69;37.28;101193.44;10253307;28;20051;-61
2023/04/03 10:58:54;;;;;;;4.82;1.83;;;;;;;7.50;38.42;101194.84;10244401;28;20062;-61
2023/04/03 11:03:59;;;;;;;5.32;1.90;;;;;;;7.51;37.99;101188.75;10246241;28;20470;-61
2023/04/03 11:09:08;;;;;;;5.45;1.92;;;;;;;7.22;38.30;101189.53;10255482;28;20066;-61
2023/04/03 11:14:16;;;;;;;5.30;1.70;;;;;;;6.63;36.57;101197.94;10257641;28;20121;-62
2023/04/03 11:19:33;;;;;;;6.50;1.90;;;;;;;6.84;36.08;101179.22;10256073;28;20441;-61
2023/04/03 11:24:39;;;;;;;5.57;1.90;;;;;;;6.38;36.42;101173.41;10257845;28;20426;-61
2023/04/03 11:29:45;;;;;;;5.53;1.90;;;;;;;6.80;38.98;101170.66;10255554;28;20046;-61
2023/04/03 11:34:50;;;;;;;9.50;1.98;;;;;;;6.73;35.89;101156.09;10256704;28;20161;-61
2023/04/03 11:39:59;;;;;;;4.35;2.00;;;;;;;6.44;35.26;101152.47;10253629;28;20086;-62
2023/04/03 11:45:24;;;;;;;6.65;1.92;;;;;;;6.49;34.92;101140.25;10259488;28;20053;-61
2023/04/03 11:50:42;;;;;;;3.50;1.70;;;;;;;6.47;37.16;101136.81;10252249;28;20410;-61
2023/04/03 11:55:49;;;;;;;3.90;1.80;;;;;;;6.57;34.52;101133.13;10258333;28;20055;-61
2023/04/03 12:00:57;;;;;;;3.55;1.75;;;;;;;6.75;36.13;101137.84;10254143;28;20106;-61
2023/04/03 12:06:05;;;;;;;5.57;2.03;;;;;;;6.96;33.97;101126.88;10257575;28;20057;-61
2023/04/03 12:11:10;;;;;;;5.28;1.90;;;;;;;7.10;34.78;101143.84;10255907;28;20042;-61
2023/04/03 12:16:23;;;;;;;4.30;1.85;;;;;;;7.04;35.17;101141.41;10264516;28;20038;-61
2023/04/03 12:21:27;;;;;;;4.55;1.83;;;;;;;7.03;33.80;101136.25;10262499;28;20054;-60
2023/04/03 12:26:47;;;;;;;4.63;1.80;;;;;;;7.33;37.47;101119.81;10262245;28;20042;-61
2023/04/03 12:32:23;;;;;;;5.60;1.97;;;;;;;7.40;33.24;101118.75;10260578;28;20137;-61
2023/04/03 12:37:47;;;;;;;4.95;1.88;;;;;;;6.96;34.34;101088.75;10262819;28;20145;-61
2023/04/03 12:43:20;;;;;;;4.93;1.92;;;;;;;7.15;35.36;101107.31;10263810;28;20534;-61
2023/04/03 12:48:28;;;;;;;5.18;1.80;;;;;;;7.09;33.30;101104.88;10262169;28;20439;-61
2023/04/03 12:53:35;;;;;;;5.95;1.77;;;;;;;7.24;33.32;101090.59;10261450;28;20050;-62
2023/04/03 12:58:37;;;;;;;2.75;1.58;;;;;;;7.30;33.74;101083.50;10262047;28;20065;-61
2023/04/03 13:03:44;;;;;;;5.10;1.75;;;;;;;7.47;35.59;101083.00;10260238;28;20035;-61
2023/04/03 13:09:15;;;;;;;5.25;1.85;;;;;;;7.75;35.75;101068.28;10260596;28;20145;-61
2023/04/03 13:14:25;;;;;;;5.25;1.85;;;;;;;7.81;33.04;101073.31;10292643;28;20039;-61
2023/04/03 13:19:27;;;;;;;5.90;1.80;;;;;;;7.61;33.90;101076.47;10258695;28;20058;-61
2023/04/03 13:24:35;;;;;;;4.75;1.55;;;;;;;7.66;36.02;101074.63;10260304;28;20042;-61
2023/04/03 13:29:37;;;;;;;4.72;1.60;;;;;;;7.79;35.25;101075.09;10259547;28;20061;-61
2023/04/03 13:34:42;;;;;;;4.05;1.80;;;;;;;7.91;34.82;101069.53;10257390;28;20561;-61
2023/04/03 13:40:05;;;;;;;3.95;1.77;;;;;;;7.78;35.23;101066.44;10260997;28;20047;-61
2023/04/03 13:45:26;;;;;;;5.07;1.70;;;;;;;8.03;34.13;101054.38;10281720;28;20069;-61
2023/04/03 13:50:29;;;;;;;4.88;1.70;;;;;;;8.21;34.80;101052.94;10266684;28;20065;-61
2023/04/03 13:55:34;;;;;;;3.90;1.40;;;;;;;8.53;34.82;101050.13;10257427;28;20696;-61
2023/04/03 14:00:38;;;;;;;6.35;1.80;;;;;;;8.29;34.03;101035.31;10260341;28;20786;-61
2023/04/03 14:05:40;;;;;;;3.65;1.67;;;;;;;8.01;34.12;101040.53;10264440;28;20169;-61
2023/04/03 14:10:42;;;;;;;4.40;1.70;;;;;;;8.30;34.41;101031.81;10266853;28;20065;-60
2023/04/03 14:15:45;;;;;;;4.20;1.42;;;;;;;8.53;34.00;101031.03;10263723;28;21082;-60
2023/04/03 14:20:48;;;;;;;4.53;1.60;;;;;;;8.17;33.28;101033.09;10260186;28;20811;-61
2023/04/03 14:25:50;;;;;;;4.38;1.50;;;;;;;8.09;34.07;101035.06;10264438;28;20054;-60
2023/04/03 14:30:52;;;;;;;3.72;1.80;;;;;;;7.56;32.40;101031.53;10251769;28;20055;-61
2023/04/03 14:35:54;;;;;;;4.97;1.50;;;;;;;7.89;33.92;101017.47;10262091;28;20053;-60
2023/04/03 14:40:58;;;;;;;4.15;1.60;;;;;;;8.14;33.99;101008.91;10258736;28;20125;-61
2023/04/03 14:46:19;;;;;;;3.58;1.45;;;;;;;8.24;35.10;101008.53;10259001;28;20171;-61
2023/04/03 14:51:21;;;;;;;4.97;1.50;;;;;;;8.13;33.72;101017.63;10269429;28;20086;-61
2023/04/03 14:56:27;;;;;;;5.07;1.55;;;;;;;7.74;33.27;101009.28;10261903;28;20061;-61
2023/04/03 15:01:29;;;;;;;4.43;1.30;;;;;;;7.26;33.52;101010.75;10257059;28;20157;-61
2023/04/03 15:06:32;;;;;;;5.93;1.60;;;;;;;7.47;34.43;101002.34;10262178;28;20134;-61
2023/04/03 15:11:34;;;;;;;5.05;1.58;;;;;;;7.71;35.08;100992.00;10256951;28;20047;-61
2023/04/03 15:16:37;;;;;;;3.55;1.50;;;;;;;7.83;35.39;100996.81;10261535;28;20114;-61
2023/04/03 15:21:39;;;;;;;4.65;1.55;;;;;;;8.07;35.58;101002.16;10256526;28;20156;-61
2023/04/03 15:26:41;;;;;;;3.72;1.52;;;;;;;8.01;33.73;100983.22;10259931;28;20396;-61
2023/04/03 15:31:43;;;;;;;3.92;1.50;;;;;;;7.93;33.99;100995.66;10256253;28;20136;-61
2023/04/03 15:36:45;;;;;;;5.15;1.52;;;;;;;8.10;34.09;100989.91;10256834;28;20065;-61
2023/04/03 15:41:47;;;;;;;3.75;1.55;;;;;;;8.14;33.59;100988.06;10253831;28;20050;-61
2023/04/03 15:46:51;;;;;;;5.53;1.48;;;;;;;8.10;33.33;100989.03;10258699;28;20049;-62
2023/04/03 15:51:53;;;;;;;4.78;1.80;;;;;;;7.86;33.84;100999.34;10260253;28;20065;-63
2023/04/03 15:56:55;;;;;;;4.55;1.90;;;;;;;8.17;34.70;100993.16;10268431;28;20043;-63
2023/04/03 16:01:58;;;;;;;2.92;1.65;;;;;;;8.10;33.38;100991.63;10264125;28;20054;-61
2023/04/03 16:07:04;;;;;;;5.88;1.67;;;;;;;7.77;32.58;100988.38;10263912;28;20046;-62
2023/04/03 16:12:05;;;;;;;3.42;1.50;;;;;;;7.60;34.90;100991.50;10289498;28;20520;-62
2023/04/03 16:17:07;;;;;;;4.78;1.60;;;;;;;7.77;34.36;100994.41;10268391;28;20046;-62
2023/04/03 16:22:09;;;;;;;5.07;1.52;;;;;;;7.95;33.96;100993.84;10257877;28;20055;-62
2023/04/03 16:27:11;;;;;;;4.53;1.50;;;;;;;7.86;33.81;100995.88;10260642;28;20047;-62
2023/04/03 16:32:14;;;;;;;6.05;1.45;;;;;;;7.65;34.55;100996.56;10260039;28;20050;-62
2023/04/03 16:37:16;;;;;;;4.53;1.73;;;;;;;7.84;34.00;100988.13;10262852;28;20648;-63
2023/04/03 16:42:18;;;;;;;7.85;2.00;;;;;;;7.80;33.87;100991.72;10257819;28;20053;-62
2023/04/03 16:47:20;;;;;;;4.45;1.58;;;;;;;7.64;33.93;100984.44;10264033;28;20714;-62
2023/04/03 16:52:22;;;;;;;4.70;1.80;;;;;;;7.56;35.12;100989.88;10265915;28;20051;-62
2023/04/03 16:57:24;;;;;;;4.20;1.70;;;;;;;7.54;34.78;100994.28;10262794;28;20566;-62
2023/04/03 17:02:26;;;;;;;3.35;1.42;;;;;;;7.54;34.93;101004.69;10259901;28;20446;-62
2023/04/03 17:07:28;;;;;;;5.13;1.58;;;;;;;7.33;34.65;101001.84;10266068;28;20082;-62
2023/04/03 17:12:30;;;;;;;6.90;1.80;;;;;;;7.01;34.43;101006.25;10261911;28;20047;-62
2023/04/03 17:17:32;;;;;;;6.90;1.88;;;;;;;6.90;35.43;101007.44;10260550;28;20050;-62
2023/04/03 17:22:34;;;;;;;4.60;1.70;;;;;;;6.85;35.65;101004.13;10250862;28;20039;-62
2023/04/03 17:27:37;;;;;;;5.35;1.60;;;;;;;6.66;35.32;101008.09;10260885;28;20399;-62
2023/04/03 17:32:39;;;;;;;8.25;1.65;;;;;;;6.56;35.24;101015.31;10258177;28;20055;-62
2023/04/03 17:37:41;;;;;;;3.95;1.70;;;;;;;6.46;35.87;101018.16;10257844;28;20047;-62
2023/04/03 17:42:43;;;;;;;5.63;1.85;;;;;;;6.42;35.80;101017.41;10242727;28;20046;-62
2023/04/03 17:47:45;;;;;;;5.20;1.83;;;;;;;6.11;36.60;101012.09;10259140;28;20074;-60
2023/04/03 17:52:48;;;;;;;12.73;4.78;;;;;;;6.00;37.42;101018.44;10247058;28;20298;-61
2023/04/03 17:57:49;;;;;;;5.35;1.77;;;;;;;5.68;37.24;101020.91;10260183;28;20399;-61
2023/04/03 18:02:53;;;;;;;6.68;1.80;;;;;;;5.55;36.90;101022.94;10249526;28;20053;-60
2023/04/03 18:07:56;;;;;;;4.40;2.00;;;;;;;5.51;38.26;101035.09;10258962;28;20072;-60
2023/04/03 18:12:58;;;;;;;7.40;2.78;;;;;;;5.42;38.32;101042.22;10248228;28;21242;-61
2023/04/03 18:18:00;;;;;;;4.93;1.98;;;;;;;5.28;38.65;101046.84;10255713;28;20073;-60
2023/04/03 18:23:02;;;;;;;7.28;2.38;;;;;;;5.14;38.69;101047.16;10253225;28;20050;-61
2023/04/03 18:28:05;;;;;;;7.90;1.90;;;;;;;5.05;38.99;101046.44;10255113;28;20376;-61
2023/04/03 18:33:07;;;;;;;8.25;2.97;;;;;;;5.04;39.49;101045.63;10257616;28;20137;-61
2023/04/03 18:38:09;;;;;;;16.38;4.88;;;;;;;4.87;39.12;101047.66;10269129;28;20058;-61
2023/04/03 18:43:11;;;;;;;7.78;2.00;;;;;;;4.86;39.34;101051.13;10248289;28;20057;-60
2023/04/03 18:48:13;;;;;;;5.07;2.20;;;;;;;4.81;40.43;101052.97;10248715;28;20166;-59
2023/04/03 18:53:15;;;;;;;7.97;2.70;;;;;;;4.75;40.23;101062.59;10253584;28;20050;-59
2023/04/03 18:58:16;;;;;;;6.95;2.38;;;;;;;4.66;41.38;101069.63;10250498;28;20189;-59
2023/04/03 19:03:18;;;;;;;6.07;2.80;;;;;;;4.53;42.55;101073.34;10251931;28;20922;-59
2023/04/03 19:08:23;;;;;;;8.10;2.20;;;;;;;4.49;42.50;101082.03;10246524;28;20065;-60
2023/04/03 19:13:26;;;;;;;5.65;2.17;;;;;;;4.43;42.43;101084.72;10252853;28;20109;-59
2023/04/03 19:18:29;;;;;;;5.55;2.53;;;;;;;4.34;43.22;101087.47;10251716;28;20054;-59
2023/04/03 19:23:30;;;;;;;11.20;4.03;;;;;;;4.27;43.33;101096.19;10256137;28;20126;-59
2023/04/03 19:28:32;;;;;;;10.00;2.63;;;;;;;4.16;43.01;101103.28;10248133;28;20065;-59
2023/04/03 19:33:35;;;;;;;9.07;2.40;;;;;;;4.07;42.94;101108.59;10257292;28;20420;-59
2023/04/03 19:38:37;;;;;;;6.57;2.45;;;;;;;3.88;43.36;101108.00;10256959;28;20578;-59
2023/04/03 19:43:40;;;;;;;7.32;2.60;;;;;;;3.82;43.08;101108.03;10260581;28;20392;-59
2023/04/03 19:48:42;;;;;;;6.03;2.30;;;;;;;3.77;44.03;101114.16;10261957;28;20055;-59
2023/04/03 19:53:46;;;;;;;5.70;2.20;;;;;;;3.72;44.74;101116.81;10260395;28;20419;-59
2023/04/03 19:58:54;;;;;;;6.32;2.40;;;;;;;3.70;44.99;101108.22;10261924;28;20497;-59
2023/04/03 20:03:56;;;;;;;6.07;2.38;;;;;;;3.63;45.17;101110.91;10262938;28;20520;-59
2023/04/03 20:08:58;;;;;;;4.95;2.20;;;;;;;3.58;45.22;101115.25;10255363;28;20046;-59
2023/04/03 20:14:00;;;;;;;5.00;2.30;;;;;;;3.52;45.18;101118.78;10260203;28;20406;-59
2023/04/03 20:19:02;;;;;;;6.25;2.40;;;;;;;3.38;44.99;101119.81;10257671;28;20050;-59
2023/04/03 20:24:06;;;;;;;6.40;2.35;;;;;;;3.20;45.09;101122.63;10256406;28;20042;-59
2023/04/03 20:29:13;;;;;;;5.38;2.35;;;;;;;3.16;45.14;101126.97;10253870;28;20422;-59
2023/04/03 20:34:15;;;;;;;5.55;2.30;;;;;;;3.10;45.54;101126.19;10259398;28;20043;-59
2023/04/03 20:39:18;;;;;;;4.43;2.00;;;;;;;3.07;45.78;101122.75;10262557;28;20046;-59
2023/04/03 20:44:20;;;;;;;4.97;1.88;;;;;;;3.07;46.05;101117.59;10267226;28;20307;-59
2023/04/03 20:49:23;;;;;;;4.82;2.20;;;;;;;3.02;46.87;101124.53;10269341;28;20089;-59
2023/04/03 20:54:25;;;;;;;5.38;2.15;;;;;;;2.95;46.81;101120.28;10281137;28;20050;-59
2023/04/03 20:59:27;;;;;;;4.68;1.92;;;;;;;2.91;47.18;101123.78;10278129;28;20051;-58
2023/04/03 21:04:38;;;;;;;4.88;2.10;;;;;;;2.86;47.48;101124.69;10262618;28;20053;-61
2023/04/03 21:10:17;;;;;;;7.50;2.47;;;;;;;2.68;47.96;101119.72;10264084;28;20861;-60
2023/04/03 21:15:58;;;;;;;6.85;2.00;;;;;;;2.49;47.75;101121.59;10263617;28;20055;-60
2023/04/03 21:21:01;;;;;;;4.70;2.05;;;;;;;2.32;47.41;101115.69;10261844;28;20395;-60
2023/04/03 21:26:03;;;;;;;5.95;2.10;;;;;;;2.29;47.39;101118.31;10263717;28;20042;-60
2023/04/03 21:31:05;;;;;;;5.85;2.22;;;;;;;2.31;48.16;101110.53;10263853;28;20057;-60
2023/04/03 21:36:08;;;;;;;5.47;2.70;;;;;;;2.15;48.21;101109.81;10261364;28;20093;-60
2023/04/03 21:41:09;;;;;;;5.90;2.30;;;;;;;1.94;47.95;101125.41;10261036;28;20103;-60
2023/04/03 21:46:11;;;;;;;7.57;2.50;;;;;;;1.80;47.87;101119.47;10260999;28;20047;-60
2023/04/03 21:51:13;;;;;;;5.97;3.22;;;;;;;1.82;47.85;101123.75;10260861;28;20393;-60
2023/04/03 21:56:15;;;;;;;7.25;2.80;;;;;;;1.77;48.36;101119.47;10262223;28;20135;-60
2023/04/03 22:01:17;;;;;;;6.65;2.90;;;;;;;1.73;48.22;101117.78;10258484;28;20047;-60
2023/04/03 22:06:19;;;;;;;6.28;2.95;;;;;;;1.65;48.58;101115.25;10260819;28;20049;-60
2023/04/03 22:11:23;;;;;;;11.52;3.10;;;;;;;1.55;48.85;101118.72;10260511;28;20656;-60
2023/04/03 22:16:25;;;;;;;7.57;2.80;;;;;;;1.45;48.69;101111.03;10255632;28;20047;-60
2023/04/03 22:21:27;;;;;;;5.13;2.60;;;;;;;1.41;48.82;101115.34;10275937;28;20447;-60
2023/04/03 22:26:29;;;;;;;7.13;2.78;;;;;;;1.43;49.30;101117.91;10259517;28;20053;-60
2023/04/03 22:31:31;;;;;;;6.93;2.55;;;;;;;1.43;49.14;101121.34;10256883;28;20042;-61
2023/04/03 22:36:32;;;;;;;10.98;2.65;;;;;;;1.34;49.06;101116.22;10257679;28;20047;-60
2023/04/03 22:41:34;;;;;;;7.18;2.67;;;;;;;1.15;49.19;101118.03;10254558;28;20475;-60
2023/04/03 22:46:36;;;;;;;7.88;2.75;;;;;;;1.17;49.30;101116.31;10258624;28;20050;-61
2023/04/03 22:51:38;;;;;;;6.03;2.75;;;;;;;1.08;49.03;101126.63;10257334;28;20057;-60
2023/04/03 22:56:40;;;;;;;8.82;2.88;;;;;;;1.04;49.37;101122.34;10255065;28;20043;-61
2023/04/03 23:01:41;;;;;;;5.25;2.30;;;;;;;0.93;49.10;101124.06;10255189;28;20066;-60
2023/04/03 23:06:43;;;;;;;6.03;2.45;;;;;;;0.86;49.64;101124.94;10255526;28;20050;-60
2023/04/03 23:11:45;;;;;;;8.65;2.35;;;;;;;0.75;49.50;101120.69;10256128;28;20054;-59
2023/04/03 23:16:47;;;;;;;5.93;2.53;;;;;;;0.58;49.99;101132.69;10256601;28;20407;-58
2023/04/03 23:21:49;;;;;;;7.20;2.60;;;;;;;0.60;49.84;101128.41;10256118;28;20052;-59
2023/04/03 23:26:51;;;;;;;7.00;2.53;;;;;;;0.49;49.97;101133.53;10255473;28;20808;-59
2023/04/03 23:31:53;;;;;;;4.93;2.17;;;;;;;0.40;50.05;101129.25;10255192;28;20043;-59
2023/04/03 23:36:54;;;;;;;8.95;2.78;;;;;;;0.41;50.14;101128.41;10254374;28;20077;-59